createdAt,value
2019-03-12T00:01:03.614Z,102017.80
2019-03-12T00:03:33.480Z,102011.65
2019-03-12T00:06:03.428Z,102011.25
2019-03-12T00:08:33.354Z,102012.56
2019-03-12T00:11:03.632Z,102009.83
2019-03-12T00:13:33.749Z,102008.02
2019-03-12T00:16:03.718Z,102004.48
2019-03-12T00:18:33.888Z,102000.56
2019-03-12T00:21:03.752Z,102001.58
2019-03-12T00:23:33.834Z,102001.80
2019-03-12T00:26:04.057Z,102009.31
2019-03-12T00:28:34.313Z,102016.84
2019-03-12T00:31:04.488Z,102013.94
2019-03-12T00:33:34.386Z,102008.36
2019-03-12T00:36:04.304Z,102004.84
2019-03-12T00:38:34.196Z,102010.52
2019-03-12T00:41:04.145Z,102006.77
2019-03-12T00:43:34.308Z,101998.46
2019-03-12T00:46:04.244Z,101997.66
2019-03-12T00:48:34.096Z,102003.41
2019-03-12T00:51:03.938Z,102001.44
2019-03-12T00:53:33.785Z,102003.41
2019-03-12T00:56:03.713Z,102003.61
2019-03-12T00:58:33.628Z,101999.49
2019-03-12T01:01:03.568Z,101998.00
2019-03-12T01:03:33.495Z,101998.59
2019-03-12T01:06:03.355Z,102000.80
2019-03-12T01:08:33.282Z,101999.09
2019-03-12T01:11:03.075Z,101995.63
2019-03-12T01:13:33.017Z,101992.61
2019-03-12T01:16:02.896Z,101989.25
2019-03-12T01:18:33.068Z,101985.48
2019-03-12T01:21:02.919Z,101986.88
2019-03-12T01:23:33.072Z,101983.27
2019-03-12T01:26:03.035Z,101979.23
2019-03-12T01:28:32.882Z,101990.50
2019-03-12T01:31:02.818Z,101992.50
2019-03-12T01:33:32.764Z,101979.70
2019-03-12T01:36:02.842Z,101976.47
2019-03-12T01:38:32.997Z,101974.95
2019-03-12T01:41:03.209Z,101966.05
2019-03-12T01:43:33.181Z,101973.39
2019-03-12T01:46:03.316Z,101971.28
2019-03-12T01:48:34.357Z,101967.76
2019-03-12T01:51:04.302Z,101962.77
2019-03-12T01:53:34.522Z,101962.25
2019-03-12T01:56:04.742Z,101947.30
2019-03-12T01:58:34.580Z,101944.03
2019-03-12T02:01:04.638Z,101940.50
2019-03-12T02:03:34.620Z,101934.02
2019-03-12T02:06:04.571Z,101929.78
2019-03-12T02:08:34.339Z,101932.57
2019-03-12T02:11:04.266Z,101921.36
2019-03-12T02:13:34.198Z,101921.70
2019-03-12T02:16:05.594Z,101912.09
2019-03-12T02:18:35.504Z,101911.24
2019-03-12T02:21:05.449Z,101912.95
2019-03-12T02:23:35.331Z,101910.79
2019-03-12T02:26:05.595Z,101908.05
2019-03-12T02:28:35.699Z,101910.07
2019-03-12T02:31:05.613Z,101896.77
2019-03-12T02:33:35.809Z,101886.50
2019-03-12T02:36:05.782Z,101887.47
2019-03-12T02:38:35.628Z,101883.70
2019-03-12T02:41:05.681Z,101882.41
2019-03-12T02:43:35.832Z,101877.23
2019-03-12T02:46:05.781Z,101878.04
2019-03-12T02:48:35.984Z,101887.91
2019-03-12T02:51:05.944Z,101883.89
2019-03-12T02:53:36.098Z,101879.33
2019-03-12T02:56:06.099Z,101881.09
2019-03-12T02:58:36.031Z,101885.86
2019-03-12T03:01:07.385Z,101887.92
2019-03-12T03:03:37.635Z,101872.29
2019-03-12T03:06:17.109Z,101877.12
2019-03-12T03:08:47.423Z,101882.74
2019-03-12T03:11:17.284Z,101876.16
2019-03-12T03:13:47.210Z,101880.02
2019-03-12T03:16:17.172Z,101880.31
2019-03-12T03:18:47.263Z,101878.88
2019-03-12T03:21:17.408Z,101870.92
2019-03-12T03:23:47.276Z,101879.16
2019-03-12T03:26:17.241Z,101877.75
2019-03-12T03:28:47.176Z,101870.31
2019-03-12T03:31:17.101Z,101871.67
2019-03-12T03:33:47.019Z,101868.71
2019-03-12T03:36:17.809Z,101871.83
2019-03-12T03:38:48.056Z,101869.27
2019-03-12T03:41:18.054Z,101858.77
2019-03-12T03:43:47.981Z,101861.67
2019-03-12T03:46:18.076Z,101861.56
2019-03-12T03:48:48.132Z,101855.37
2019-03-12T03:51:19.310Z,101849.55
2019-03-12T03:53:50.690Z,101859.49
2019-03-12T03:56:21.672Z,101849.38
2019-03-12T03:58:51.480Z,101848.47
2019-03-12T04:01:21.675Z,101843.58
2019-03-12T04:03:52.529Z,101838.75
2019-03-12T04:06:22.825Z,101832.61
2019-03-12T04:08:53.249Z,101829.09
2019-03-12T04:11:23.195Z,101821.13
2019-03-12T04:13:53.200Z,101816.61
2019-03-12T04:16:23.419Z,101814.45
2019-03-12T04:18:53.287Z,101811.33
2019-03-12T04:21:23.248Z,101800.86
2019-03-12T04:23:53.118Z,101796.66
2019-03-12T04:26:23.383Z,101796.66
2019-03-12T04:28:53.543Z,101792.43
2019-03-12T04:31:24.928Z,101787.66
2019-03-12T04:34:27.955Z,101792.22
2019-03-12T04:36:57.838Z,101800.80
2019-03-12T04:39:27.770Z,101799.78
2019-03-12T04:41:57.982Z,101796.14
2019-03-12T04:44:28.193Z,101794.11
2019-03-12T04:46:58.139Z,101780.39
2019-03-12T04:49:28.003Z,101783.29
2019-03-12T04:51:57.834Z,101776.53
2019-03-12T04:54:27.684Z,101773.86
2019-03-12T04:56:57.540Z,101772.09
2019-03-12T04:59:27.499Z,101770.33
2019-03-12T05:01:57.446Z,101768.11
2019-03-12T05:04:27.308Z,101758.44
2019-03-12T05:06:57.541Z,101765.37
2019-03-12T05:09:28.201Z,101754.39
2019-03-12T05:11:58.126Z,101746.02
2019-03-12T05:14:35.207Z,101745.23
2019-03-12T05:17:12.914Z,101738.17
2019-03-12T05:19:45.308Z,101738.08
2019-03-12T05:22:16.399Z,101732.78
2019-03-12T05:24:46.558Z,101728.21
2019-03-12T05:27:17.554Z,101723.19
2019-03-12T05:29:47.497Z,101725.19
2019-03-12T05:32:18.481Z,101727.28
2019-03-12T05:34:48.625Z,101718.45
2019-03-12T05:37:19.962Z,101718.39
2019-03-12T05:39:49.882Z,101720.09
2019-03-12T05:42:19.762Z,101712.63
2019-03-12T05:44:50.313Z,101714.66
2019-03-12T05:47:20.174Z,101707.04
2019-03-12T05:49:50.022Z,101710.84
2019-03-12T05:52:20.153Z,101704.75
2019-03-12T05:54:50.105Z,101707.20
2019-03-12T05:57:20.297Z,101702.46
2019-03-12T05:59:50.546Z,101698.89
2019-03-12T06:02:20.560Z,101698.77
2019-03-12T06:04:50.477Z,101697.00
2019-03-12T06:07:20.693Z,101694.77
2019-03-12T06:09:50.988Z,101684.59
2019-03-12T06:12:22.117Z,101676.60
2019-03-12T06:14:52.289Z,101673.06
2019-03-12T06:17:22.231Z,101670.38
2019-03-12T06:19:52.285Z,101662.00
2019-03-12T06:22:22.132Z,101661.61
2019-03-12T06:24:51.927Z,101647.92
2019-03-12T06:27:22.049Z,101642.61
2019-03-12T06:29:51.978Z,101641.23
2019-03-12T06:32:37.365Z,101643.07
2019-03-12T06:35:11.077Z,101633.45
2019-03-12T06:38:01.201Z,101636.74
2019-03-12T06:40:39.793Z,101634.52
2019-03-12T06:43:30.259Z,101636.86
2019-03-12T06:46:15.140Z,101635.34
2019-03-12T06:49:07.762Z,101625.94
2019-03-12T06:52:02.458Z,101626.12
2019-03-12T06:54:48.499Z,101615.03
2019-03-12T06:57:43.187Z,101605.94
2019-03-12T07:00:32.409Z,101596.84
2019-03-12T07:03:16.204Z,101598.78
2019-03-12T07:05:56.947Z,101592.48
2019-03-12T07:08:54.628Z,101588.08
2019-03-12T07:11:42.125Z,101590.95
2019-03-12T07:14:22.557Z,101580.28
2019-03-12T07:17:01.423Z,101576.59
2019-03-12T07:19:59.774Z,101565.05
2019-03-12T07:22:55.638Z,101559.27
2019-03-12T07:25:32.443Z,101554.69
2019-03-12T07:28:24.022Z,101550.86
2019-03-12T07:31:09.496Z,101542.05
2019-03-12T07:33:52.348Z,101543.20
2019-03-12T07:36:33.397Z,101540.97
2019-03-12T07:39:26.794Z,101532.41
2019-03-12T07:42:15.092Z,101539.95
2019-03-12T07:45:02.626Z,101529.62
2019-03-12T07:47:47.300Z,101525.92
2019-03-12T07:50:42.708Z,101520.20
2019-03-12T07:53:31.254Z,101515.89
2019-03-12T07:56:19.432Z,101520.05
2019-03-12T07:59:08.962Z,101511.15
2019-03-12T08:01:57.326Z,101511.92
2019-03-12T08:04:46.086Z,101513.00
2019-03-12T08:07:34.933Z,101499.66
2019-03-12T08:10:27.997Z,101498.37
2019-03-12T08:13:12.642Z,101487.72
2019-03-12T08:15:50.456Z,101485.63
2019-03-12T08:18:35.575Z,101478.41
2019-03-12T08:21:22.650Z,101476.94
2019-03-12T08:24:02.295Z,101463.41
2019-03-12T08:26:49.597Z,101460.27
2019-03-12T08:29:30.392Z,101440.80
2019-03-12T08:32:24.776Z,101432.56
2019-03-12T08:35:19.595Z,101440.56
2019-03-12T08:38:11.889Z,101432.22
2019-03-12T08:41:03.794Z,101434.47
2019-03-12T08:43:51.426Z,101429.22
2019-03-12T08:46:52.445Z,101415.54
2019-03-12T08:49:41.274Z,101414.14
2019-03-12T08:52:21.133Z,101408.12
2019-03-12T08:55:08.894Z,101405.63
2019-03-12T08:57:58.231Z,101399.45
2019-03-12T09:00:53.642Z,101402.29
2019-03-12T09:03:54.725Z,101383.64
2019-03-12T09:06:56.735Z,101374.54
2019-03-12T09:09:48.490Z,101376.06
2019-03-12T09:12:28.215Z,101356.29
2019-03-12T09:15:20.364Z,101347.17
2019-03-12T09:18:05.649Z,101342.88
2019-03-12T09:20:54.476Z,101333.15
2019-03-12T09:23:36.684Z,101330.70
2019-03-12T09:26:24.868Z,101325.28
2019-03-12T09:29:06.515Z,101316.34
2019-03-12T09:32:07.844Z,101308.70
2019-03-12T09:34:52.986Z,101302.13
2019-03-12T09:37:28.584Z,101294.95
2019-03-12T09:40:16.152Z,101286.41
2019-03-12T09:43:07.984Z,101281.61
2019-03-12T09:45:54.142Z,101271.61
2019-03-12T09:48:46.912Z,101267.74
2019-03-12T09:51:49.123Z,101265.20
2019-03-12T09:54:40.678Z,101251.40
2019-03-12T09:57:28.510Z,101246.42
2019-03-12T10:00:16.096Z,101240.59
2019-03-12T10:03:05.362Z,101240.82
2019-03-12T10:05:45.780Z,101236.13
2019-03-12T10:08:24.800Z,101237.53
2019-03-12T10:10:59.428Z,101228.80
2019-03-12T10:13:47.078Z,101226.16
2019-03-12T10:16:48.465Z,101212.36
2019-03-12T10:19:35.418Z,101210.01
2019-03-12T10:22:23.346Z,101206.61
2019-03-12T10:25:14.922Z,101186.13
2019-03-12T10:27:54.425Z,101169.97
2019-03-12T10:30:37.672Z,101170.56
2019-03-12T10:33:23.045Z,101167.31
2019-03-12T10:36:05.728Z,101164.28
2019-03-12T10:39:23.269Z,101151.19
2019-03-12T10:42:04.859Z,101142.96
2019-03-12T10:44:43.181Z,101138.13
2019-03-12T10:47:18.511Z,101128.92
2019-03-12T10:49:49.968Z,101124.32
2019-03-12T10:52:21.258Z,101105.69
2019-03-12T10:54:51.191Z,101097.95
2019-03-12T10:57:21.730Z,101101.11
2019-03-12T10:59:51.661Z,101090.34
2019-03-12T11:02:21.846Z,101079.59
2019-03-12T11:04:51.956Z,101073.85
2019-03-12T11:07:21.941Z,101071.48
2019-03-12T11:09:51.898Z,101056.41
2019-03-12T11:12:22.462Z,101059.22
2019-03-12T11:14:52.471Z,101062.43
2019-03-12T11:17:22.698Z,101047.22
2019-03-12T11:19:52.865Z,101041.04
2019-03-12T11:22:22.815Z,101036.03
2019-03-12T11:24:53.837Z,101037.50
2019-03-12T11:27:24.037Z,101024.50
2019-03-12T11:29:53.905Z,101011.58
2019-03-12T11:32:24.937Z,101018.54
2019-03-12T11:34:54.832Z,101021.29
2019-03-12T11:37:24.746Z,100999.61
2019-03-12T11:39:54.732Z,100990.13
2019-03-12T11:42:25.370Z,100988.00
2019-03-12T11:44:55.354Z,100976.16
2019-03-12T11:47:25.329Z,100961.66
2019-03-12T11:49:55.121Z,100968.62
2019-03-12T11:52:25.089Z,100958.91
2019-03-12T11:54:55.017Z,100956.66
2019-03-12T11:57:24.976Z,100942.03
2019-03-12T11:59:54.752Z,100933.06
2019-03-12T12:02:24.685Z,100928.27
2019-03-12T12:04:54.537Z,100917.48
2019-03-12T12:07:24.904Z,100916.86
2019-03-12T12:09:54.791Z,100912.20
2019-03-12T12:12:25.049Z,100909.44
2019-03-12T12:14:54.830Z,100905.96
2019-03-12T12:17:24.785Z,100898.75
2019-03-12T12:19:54.702Z,100885.45
2019-03-12T12:22:24.628Z,100887.00
2019-03-12T12:24:54.906Z,100880.17
2019-03-12T12:27:24.817Z,100873.82
2019-03-12T12:29:54.598Z,100864.34
2019-03-12T12:32:24.597Z,100858.35
2019-03-12T12:34:54.529Z,100833.53
2019-03-12T12:37:24.444Z,100827.53
2019-03-12T12:39:54.226Z,100816.73
2019-03-12T12:42:24.169Z,100811.22
2019-03-12T12:44:54.103Z,100794.42
2019-03-12T12:47:23.981Z,100794.79
2019-03-12T12:49:54.283Z,100779.77
2019-03-12T12:52:24.214Z,100776.89
2019-03-12T12:54:54.310Z,100767.13
2019-03-12T12:57:24.178Z,100759.69
2019-03-12T12:59:54.025Z,100751.28
2019-03-12T13:02:23.984Z,100746.37
2019-03-12T13:04:53.905Z,100737.00
2019-03-12T13:07:23.780Z,100731.68
2019-03-12T13:09:53.722Z,100728.31
2019-03-12T13:12:23.677Z,100716.55
2019-03-12T13:14:53.942Z,100705.99
2019-03-12T13:17:25.299Z,100700.60
2019-03-12T13:19:55.215Z,100698.45
2019-03-12T13:22:25.123Z,100681.16
2019-03-12T13:24:55.348Z,100666.88
2019-03-12T13:27:25.275Z,100650.80
2019-03-12T13:29:55.155Z,100653.79
2019-03-12T13:32:25.271Z,100628.20
2019-03-12T13:34:55.268Z,100621.61
2019-03-12T13:37:25.212Z,100616.75
2019-03-12T13:39:55.444Z,100594.77
2019-03-12T13:42:25.403Z,100595.12
2019-03-12T13:44:55.676Z,100582.72
2019-03-12T13:47:28.690Z,100569.31
2019-03-12T13:49:59.297Z,100562.84
2019-03-12T13:52:29.158Z,100562.59
2019-03-12T13:54:58.949Z,100543.72
2019-03-12T13:57:28.798Z,100543.65
2019-03-12T13:59:58.746Z,100538.78
2019-03-12T14:02:28.978Z,100534.21
2019-03-12T14:04:58.909Z,100517.70
2019-03-12T14:07:29.108Z,100509.00
2019-03-12T14:09:59.032Z,100510.99
2019-03-12T14:12:29.325Z,100500.24
2019-03-12T14:14:59.209Z,100490.23
2019-03-12T14:17:29.214Z,100489.39
2019-03-12T14:20:22.967Z,100480.77
2019-03-12T14:22:52.938Z,100465.83
2019-03-12T14:25:22.892Z,100459.13
2019-03-12T14:27:52.892Z,100455.56
2019-03-12T14:30:23.119Z,100429.23
2019-03-12T14:32:53.046Z,100426.72
2019-03-12T14:35:22.985Z,100430.45
2019-03-12T14:37:52.928Z,100412.20
2019-03-12T14:40:23.085Z,100402.48
2019-03-12T14:42:52.950Z,100393.86
2019-03-12T14:45:27.228Z,100382.25
2019-03-12T14:47:58.356Z,100372.17
2019-03-12T14:50:28.681Z,100372.05
2019-03-12T14:53:03.454Z,100361.14
2019-03-12T14:55:33.472Z,100352.38
2019-03-12T14:58:03.950Z,100345.92
2019-03-12T15:00:34.405Z,100327.70
2019-03-12T15:03:04.311Z,100334.47
2019-03-12T15:05:34.488Z,100328.70
2019-03-12T15:08:06.128Z,100335.91
2019-03-12T15:10:36.074Z,100322.72
2019-03-12T15:13:05.988Z,100312.17
2019-03-12T15:15:36.128Z,100307.16
2019-03-12T15:18:06.359Z,100292.64
2019-03-12T15:20:36.655Z,100282.58
2019-03-12T15:23:06.688Z,100268.90
2019-03-12T15:25:37.352Z,100257.52
2019-03-12T15:28:07.507Z,100261.60
2019-03-12T15:30:39.497Z,100242.78
2019-03-12T15:33:09.532Z,100245.91
2019-03-12T15:35:39.464Z,100234.17
2019-03-12T15:38:09.311Z,100217.28
2019-03-12T15:40:39.104Z,100208.05
2019-03-12T15:43:09.105Z,100208.53
2019-03-12T15:45:38.898Z,100197.15
2019-03-12T15:48:09.747Z,100194.19
2019-03-12T15:50:39.700Z,100183.29
2019-03-12T15:53:09.938Z,100166.81
2019-03-12T15:55:39.876Z,100155.11
2019-03-12T15:58:09.987Z,100159.69
2019-03-12T16:00:40.123Z,100134.06
2019-03-12T16:03:10.501Z,100122.55
2019-03-12T16:05:40.589Z,100114.63
2019-03-12T16:08:10.513Z,100108.66
2019-03-12T16:10:40.459Z,100108.17
2019-03-12T16:13:10.387Z,100094.07
2019-03-12T16:15:40.639Z,100092.75
2019-03-12T16:18:10.542Z,100079.08
2019-03-12T16:20:41.896Z,100082.20
2019-03-12T16:23:11.812Z,100065.89
2019-03-12T16:25:43.067Z,100063.26
2019-03-12T16:28:13.279Z,100060.48
2019-03-12T16:30:43.533Z,100042.99
2019-03-12T16:33:13.527Z,100031.47
2019-03-12T16:35:43.456Z,100030.64
2019-03-12T16:38:13.403Z,100022.59
2019-03-12T16:40:43.349Z,100011.34
2019-03-12T16:43:13.576Z,100004.27
2019-03-12T16:45:43.519Z,100000.66
2019-03-12T16:48:13.458Z,100000.80
2019-03-12T16:50:43.338Z,99985.81
2019-03-12T16:53:13.558Z,99967.14
2019-03-12T16:55:44.465Z,99960.20
2019-03-12T16:58:14.493Z,99957.38
2019-03-12T17:00:44.440Z,99958.53
2019-03-12T17:03:14.483Z,99954.58
2019-03-12T17:05:44.334Z,99946.97
2019-03-12T17:08:14.267Z,99946.63
2019-03-12T17:10:54.793Z,99948.91
2019-03-12T17:13:15.783Z,99943.78
2019-03-12T17:15:45.561Z,99944.40
2019-03-12T17:18:15.480Z,99944.89
2019-03-12T17:20:45.393Z,99937.59
2019-03-12T17:23:15.326Z,99932.33
2019-03-12T17:25:45.099Z,99914.36
2019-03-12T17:28:15.024Z,99909.08
2019-03-12T17:30:44.883Z,99911.03
2019-03-12T17:33:14.936Z,99897.19
2019-03-12T17:35:44.977Z,99906.59
2019-03-12T17:38:14.879Z,99904.44
2019-03-12T17:40:44.860Z,99889.45
2019-03-12T17:43:15.021Z,99877.59
2019-03-12T17:45:45.420Z,99867.18
2019-03-12T17:48:15.356Z,99849.21
2019-03-12T17:50:45.368Z,99868.98
2019-03-12T17:53:15.371Z,99851.36
2019-03-12T17:55:45.732Z,99843.94
2019-03-12T17:58:15.820Z,99841.02
2019-03-12T18:00:46.138Z,99843.52
2019-03-12T18:03:16.129Z,99829.16
2019-03-12T18:05:46.078Z,99824.52
2019-03-12T18:08:16.014Z,99819.24
2019-03-12T18:10:46.179Z,99816.95
2019-03-12T18:13:17.417Z,99807.38
2019-03-12T18:15:47.682Z,99805.71
2019-03-12T18:18:17.994Z,99791.56
2019-03-12T18:20:48.294Z,99776.78
2019-03-12T18:23:20.069Z,99776.78
2019-03-12T18:25:50.424Z,99770.88
2019-03-12T18:28:22.210Z,99761.30
2019-03-12T18:30:52.420Z,99760.81
2019-03-12T18:33:22.336Z,99751.59
2019-03-12T18:35:52.720Z,99757.06
2019-03-12T18:38:22.662Z,99747.49
2019-03-12T18:40:52.613Z,99745.83
2019-03-12T18:43:22.821Z,99754.08
2019-03-12T18:45:52.990Z,99718.00
2019-03-12T18:48:23.105Z,99717.17
2019-03-12T18:50:53.115Z,99716.68
2019-03-12T18:53:23.448Z,99716.20
2019-03-12T18:56:07.357Z,99702.04
2019-03-12T18:58:37.277Z,99679.14
2019-03-12T19:01:09.515Z,99681.97
2019-03-12T19:03:39.447Z,99668.79
2019-03-12T19:06:10.170Z,99677.53
2019-03-12T19:08:47.519Z,99669.48
2019-03-12T19:11:12.317Z,99662.88
2019-03-12T19:13:43.352Z,99649.22
2019-03-12T19:16:13.671Z,99651.02
2019-03-12T19:18:43.724Z,99651.67
2019-03-12T19:21:13.651Z,99656.60
2019-03-12T19:23:43.592Z,99659.76
2019-03-12T19:26:13.832Z,99659.23
2019-03-12T19:28:43.752Z,99649.50
2019-03-12T19:31:31.601Z,99648.97
2019-03-12T19:34:08.815Z,99652.72
2019-03-12T19:36:38.815Z,99641.63
2019-03-12T19:39:10.551Z,99647.03
2019-03-12T19:41:40.775Z,99646.48
2019-03-12T19:44:10.709Z,99653.37
2019-03-12T19:46:40.656Z,99622.71
2019-03-12T19:49:10.615Z,99623.14
2019-03-12T19:51:41.228Z,99617.70
2019-03-12T19:54:11.294Z,99625.27
2019-03-12T19:56:41.382Z,99620.34
2019-03-12T19:59:11.765Z,99619.02
2019-03-12T20:01:44.444Z,99616.88
2019-03-12T20:04:14.735Z,99617.56
2019-03-12T20:06:44.982Z,99609.66
2019-03-12T20:09:43.732Z,99603.23
2019-03-12T20:13:01.780Z,99596.98
2019-03-12T20:16:11.831Z,99599.48
2019-03-12T20:19:25.812Z,99590.45
2019-03-12T20:22:48.845Z,99595.58
2019-03-12T20:25:46.720Z,99599.44
2019-03-12T20:28:57.899Z,99589.87
2019-03-12T20:32:04.138Z,99594.81
2019-03-12T20:35:17.078Z,99594.02
2019-03-12T20:38:36.514Z,99593.84
2019-03-12T20:41:48.262Z,99598.33
2019-03-12T20:44:57.824Z,99598.82
2019-03-12T20:48:02.527Z,99596.33
2019-03-12T20:51:08.708Z,99594.87
2019-03-12T20:54:26.726Z,99597.16
2019-03-12T20:57:39.848Z,99606.73
2019-03-12T21:00:41.355Z,99604.87
2019-03-12T21:03:48.111Z,99621.02
2019-03-12T21:07:02.459Z,99621.50
2019-03-12T21:10:00.695Z,99631.65
2019-03-12T21:13:10.470Z,99629.64
2019-03-12T21:16:11.654Z,99631.59
2019-03-12T21:19:30.952Z,99670.33
2019-03-12T21:22:28.110Z,99670.46
2019-03-12T21:25:19.682Z,99727.05
2019-03-12T21:28:25.408Z,99739.07
2019-03-12T21:30:55.736Z,99801.92
2019-03-12T21:33:25.667Z,99842.38
2019-03-12T21:35:55.614Z,99843.45
2019-03-12T21:38:25.561Z,99856.23
2019-03-12T21:40:55.482Z,99870.86
2019-03-12T21:43:25.323Z,99898.89
2019-03-12T21:45:55.240Z,99904.63
2019-03-12T21:48:26.470Z,99917.86
2019-03-12T21:50:58.422Z,99914.41
2019-03-12T21:53:28.567Z,99930.12
2019-03-12T21:55:58.486Z,99911.41
2019-03-12T21:58:28.438Z,99925.95
2019-03-12T22:00:58.386Z,99928.09
2019-03-12T22:03:28.582Z,99931.16
2019-03-12T22:05:59.709Z,99935.34
2019-03-12T22:08:29.670Z,99944.51
2019-03-12T22:10:59.558Z,99956.30
2019-03-12T22:13:29.778Z,99966.67
2019-03-12T22:15:59.545Z,99968.45
2019-03-12T22:18:29.510Z,99980.94
2019-03-12T22:20:59.632Z,99973.22
2019-03-12T22:23:34.267Z,99964.05
2019-03-12T22:26:04.298Z,99967.73
2019-03-12T22:28:34.507Z,99982.75
2019-03-12T22:31:04.437Z,99975.11
2019-03-12T22:33:34.275Z,99983.45
2019-03-12T22:36:04.577Z,99980.13
2019-03-12T22:38:36.123Z,99987.63
2019-03-12T22:41:06.347Z,99995.73
2019-03-12T22:43:36.547Z,100001.56
2019-03-12T22:46:07.099Z,100006.33
2019-03-12T22:48:36.938Z,100013.61
2019-03-12T22:51:06.777Z,100007.53
2019-03-12T22:53:36.634Z,100012.19
2019-03-12T22:56:06.483Z,100012.55
2019-03-12T22:58:36.346Z,100016.00
2019-03-12T23:01:24.034Z,100009.23
2019-03-12T23:04:11.875Z,100024.70
2019-03-12T23:06:59.299Z,100010.06
2019-03-12T23:09:43.701Z,100041.26
2019-03-12T23:12:16.825Z,100027.58
2019-03-12T23:14:49.037Z,100043.41
2019-03-12T23:17:20.605Z,100029.10
2019-03-12T23:19:50.826Z,100035.80
2019-03-12T23:22:22.307Z,100037.44
2019-03-12T23:24:52.266Z,100047.09
2019-03-12T23:27:22.623Z,100049.56
2019-03-12T23:29:53.313Z,100055.64
2019-03-12T23:32:23.283Z,100063.98
2019-03-12T23:34:53.135Z,100075.66
2019-03-12T23:37:22.993Z,100066.60
2019-03-12T23:39:52.920Z,100095.64
2019-03-12T23:42:22.882Z,100091.13
2019-03-12T23:44:53.054Z,100090.66
2019-03-12T23:47:22.837Z,100110.78
2019-03-12T23:49:52.683Z,100108.48
2019-03-12T23:52:22.635Z,100109.33
2019-03-12T23:54:52.576Z,100119.70
2019-03-12T23:57:22.743Z,100122.10
2019-03-12T23:59:52.681Z,100124.25
